createdAt,value
2023-04-18T00:01:18.625Z,54.60
2023-04-18T00:03:48.404Z,54.70
2023-04-18T00:06:16.724Z,54.80
2023-04-18T00:08:44.814Z,55.00
2023-04-18T00:11:12.869Z,55.20
2023-04-18T00:13:41.793Z,55.30
2023-04-18T00:16:10.168Z,55.50
2023-04-18T00:18:39.961Z,55.60
2023-04-18T00:21:09.661Z,55.70
2023-04-18T00:23:38.547Z,56.00
2023-04-18T00:26:06.743Z,56.00
2023-04-18T00:28:34.784Z,56.00
2023-04-18T00:31:02.892Z,56.10
2023-04-18T00:33:30.993Z,56.10
2023-04-18T00:35:59.044Z,56.10
2023-04-18T00:38:28.459Z,56.30
2023-04-18T00:40:56.596Z,56.40
2023-04-18T00:43:25.202Z,56.40
2023-04-18T00:45:53.418Z,56.60
2023-04-18T00:48:22.159Z,61.40
2023-04-18T00:50:50.291Z,64.00
2023-04-18T00:53:18.528Z,62.40
2023-04-18T00:55:48.290Z,61.70
2023-04-18T00:58:16.644Z,60.50
2023-04-18T01:00:44.778Z,58.00
2023-04-18T01:03:14.501Z,56.30
2023-04-18T01:05:42.851Z,55.40
2023-04-18T01:08:11.053Z,54.70
2023-04-18T01:10:39.135Z,54.50
2023-04-18T01:13:16.275Z,54.30
2023-04-18T01:15:45.897Z,54.10
2023-04-18T01:18:16.884Z,54.20
2023-04-18T01:20:47.803Z,54.30
2023-04-18T01:23:16.495Z,54.50
2023-04-18T01:25:46.443Z,54.80
2023-04-18T01:28:15.968Z,54.90
2023-04-18T01:30:44.049Z,55.10
2023-04-18T01:33:12.258Z,55.30
2023-04-18T01:35:40.328Z,55.50
2023-04-18T01:38:08.380Z,55.70
2023-04-18T01:40:36.428Z,56.50
2023-04-18T01:43:05.874Z,56.10
2023-04-18T01:45:33.973Z,56.40
2023-04-18T01:48:02.133Z,56.60
2023-04-18T01:50:30.551Z,56.60
2023-04-18T01:52:58.601Z,56.90
2023-04-18T01:55:26.622Z,57.10
2023-04-18T01:57:54.675Z,57.20
2023-04-18T02:00:24.578Z,57.50
2023-04-18T02:02:52.817Z,57.70
2023-04-18T02:05:21.267Z,57.80
2023-04-18T02:07:50.250Z,58.00
2023-04-18T02:10:18.512Z,58.20
2023-04-18T02:12:46.575Z,58.30
2023-04-18T02:15:14.734Z,58.30
2023-04-18T02:17:44.234Z,58.40
2023-04-18T02:20:13.323Z,58.60
2023-04-18T02:22:41.410Z,58.60
2023-04-18T02:25:10.852Z,58.60
2023-04-18T02:27:38.885Z,58.70
2023-04-18T02:30:08.209Z,58.70
2023-04-18T02:32:36.270Z,58.70
2023-04-18T02:35:06.358Z,58.70
2023-04-18T02:37:34.404Z,58.70
2023-04-18T02:40:02.427Z,58.70
2023-04-18T02:42:30.736Z,58.80
2023-04-18T02:44:58.864Z,58.90
2023-04-18T02:47:26.904Z,58.90
2023-04-18T02:49:55.282Z,59.00
2023-04-18T02:52:25.962Z,59.10
2023-04-18T02:54:54.099Z,59.20
2023-04-18T02:57:22.144Z,59.30
2023-04-18T02:59:50.238Z,59.40
2023-04-18T03:02:18.679Z,59.40
2023-04-18T03:04:46.814Z,59.50
2023-04-18T03:07:14.879Z,59.50
2023-04-18T03:09:44.255Z,59.50
2023-04-18T03:12:12.284Z,59.70
2023-04-18T03:14:40.363Z,59.70
2023-04-18T03:17:08.463Z,59.80
2023-04-18T03:19:36.504Z,59.90
2023-04-18T03:22:04.551Z,60.00
2023-04-18T03:24:32.615Z,60.00
2023-04-18T03:27:02.162Z,60.00
2023-04-18T03:29:30.238Z,60.00
2023-04-18T03:31:58.290Z,60.10
2023-04-18T03:34:26.309Z,60.10
2023-04-18T03:36:54.975Z,60.20
2023-04-18T03:39:23.034Z,60.30
2023-04-18T03:41:52.206Z,60.40
2023-04-18T03:44:21.613Z,60.50
2023-04-18T03:46:49.657Z,60.60
2023-04-18T03:49:17.690Z,60.60
2023-04-18T03:51:48.357Z,60.70
2023-04-18T03:54:17.174Z,60.70
2023-04-18T03:56:45.716Z,60.60
2023-04-18T03:59:13.775Z,60.70
2023-04-18T04:01:43.226Z,60.60
2023-04-18T04:04:12.217Z,60.70
2023-04-18T04:06:40.705Z,60.60
2023-04-18T04:09:08.988Z,60.60
2023-04-18T04:11:37.057Z,60.50
2023-04-18T04:14:05.090Z,60.50
2023-04-18T04:16:33.195Z,60.50
2023-04-18T04:19:02.796Z,60.50
2023-04-18T04:21:31.438Z,60.30
2023-04-18T04:23:59.479Z,60.40
2023-04-18T04:26:27.668Z,60.50
2023-04-18T04:28:56.489Z,60.60
2023-04-18T04:31:24.565Z,60.50
2023-04-18T04:33:52.618Z,60.50
2023-04-18T04:36:23.124Z,60.60
2023-04-18T04:38:52.430Z,60.80
2023-04-18T04:41:20.901Z,60.90
2023-04-18T04:43:49.832Z,61.00
2023-04-18T04:46:20.129Z,61.20
2023-04-18T04:48:49.641Z,61.30
2023-04-18T04:51:17.724Z,61.30
2023-04-18T04:53:47.140Z,61.30
2023-04-18T04:56:15.290Z,61.50
2023-04-18T04:58:43.368Z,61.40
2023-04-18T05:01:12.372Z,61.50
2023-04-18T05:03:40.678Z,61.60
2023-04-18T05:06:09.028Z,61.50
2023-04-18T05:08:37.070Z,61.40
2023-04-18T05:11:06.945Z,61.40
2023-04-18T05:13:35.001Z,61.40
2023-04-18T05:16:03.097Z,61.40
2023-04-18T05:18:33.013Z,61.50
2023-04-18T05:21:02.482Z,61.30
2023-04-18T05:23:30.867Z,61.20
2023-04-18T05:25:58.991Z,61.20
2023-04-18T05:28:28.499Z,61.20
2023-04-18T05:31:01.138Z,61.30
2023-04-18T05:33:29.567Z,61.10
2023-04-18T05:35:58.346Z,61.00
2023-04-18T05:38:26.622Z,61.10
2023-04-18T05:40:55.780Z,61.00
2023-04-18T05:43:24.415Z,60.90
2023-04-18T05:45:54.777Z,60.90
2023-04-18T05:48:25.177Z,60.90
2023-04-18T05:50:53.290Z,61.10
2023-04-18T05:53:21.342Z,61.10
2023-04-18T05:55:50.138Z,61.00
2023-04-18T05:58:18.195Z,60.80
2023-04-18T06:00:48.053Z,60.70
2023-04-18T06:03:17.701Z,60.70
2023-04-18T06:05:46.207Z,60.80
2023-04-18T06:08:14.294Z,61.00
2023-04-18T06:10:42.308Z,61.00
2023-04-18T06:13:10.378Z,61.20
2023-04-18T06:15:38.546Z,61.20
2023-04-18T06:18:06.658Z,61.30
2023-04-18T06:20:36.531Z,61.50
2023-04-18T06:23:04.587Z,61.70
2023-04-18T06:25:32.689Z,61.50
2023-04-18T06:28:00.732Z,61.50
2023-04-18T06:30:28.770Z,61.70
2023-04-18T06:32:56.848Z,61.80
2023-04-18T06:35:26.613Z,61.80
2023-04-18T06:37:56.273Z,62.10
2023-04-18T06:40:24.369Z,62.30
2023-04-18T06:42:52.421Z,62.70
2023-04-18T06:45:21.705Z,62.80
2023-04-18T06:47:51.367Z,62.80
2023-04-18T06:50:19.619Z,62.50
2023-04-18T06:52:47.662Z,62.30
2023-04-18T06:55:17.113Z,62.10
2023-04-18T06:57:45.281Z,62.20
2023-04-18T07:00:14.173Z,62.10
2023-04-18T07:02:42.453Z,61.80
2023-04-18T07:05:10.879Z,61.50
2023-04-18T07:07:38.978Z,61.30
2023-04-18T07:10:09.629Z,61.00
2023-04-18T07:12:39.151Z,60.90
2023-04-18T07:15:08.415Z,60.70
2023-04-18T07:17:37.005Z,60.80
2023-04-18T07:20:05.722Z,60.90
2023-04-18T07:22:33.783Z,61.00
2023-04-18T07:25:01.812Z,61.30
2023-04-18T07:27:29.860Z,61.40
2023-04-18T07:29:59.260Z,61.40
2023-04-18T07:32:27.663Z,61.50
2023-04-18T07:34:55.736Z,61.50
2023-04-18T07:37:23.968Z,61.50
2023-04-18T07:39:52.632Z,61.60
2023-04-18T07:42:20.712Z,61.60
2023-04-18T07:44:49.592Z,61.70
2023-04-18T07:47:22.276Z,61.80
2023-04-18T07:49:50.750Z,61.90
2023-04-18T07:52:18.779Z,61.90
2023-04-18T07:54:46.849Z,61.90
2023-04-18T07:57:14.902Z,61.80
2023-04-18T07:59:42.925Z,61.80
2023-04-18T08:02:11.008Z,61.90
2023-04-18T08:04:40.612Z,61.90
2023-04-18T08:07:08.806Z,62.10
2023-04-18T08:09:36.842Z,62.10
2023-04-18T08:12:05.236Z,62.00
2023-04-18T08:14:33.599Z,62.30
2023-04-18T08:17:01.634Z,62.20
2023-04-18T08:19:29.691Z,62.20
2023-04-18T08:22:09.828Z,62.40
2023-04-18T08:24:39.016Z,63.30
2023-04-18T08:27:07.514Z,62.50
2023-04-18T08:29:35.572Z,62.20
2023-04-18T08:32:03.779Z,61.70
2023-04-18T08:34:34.453Z,61.40
2023-04-18T08:37:04.069Z,61.60
2023-04-18T08:39:32.261Z,61.80
2023-04-18T08:42:01.637Z,61.60
2023-04-18T08:44:30.577Z,61.30
2023-04-18T08:47:01.521Z,61.10
2023-04-18T08:49:30.790Z,61.00
2023-04-18T08:52:01.140Z,60.80
2023-04-18T08:54:31.263Z,60.70
2023-04-18T08:57:06.572Z,60.10
2023-04-18T08:59:35.738Z,60.30
2023-04-18T09:02:05.449Z,60.40
2023-04-18T09:04:35.507Z,60.00
2023-04-18T09:07:04.293Z,60.00
2023-04-18T09:09:48.635Z,59.90
2023-04-18T09:12:22.649Z,59.70
2023-04-18T09:14:51.969Z,59.50
2023-04-18T09:17:33.859Z,59.40
2023-04-18T09:20:05.165Z,59.30
2023-04-18T09:22:50.543Z,59.00
2023-04-18T09:25:34.601Z,59.20
2023-04-18T09:28:03.356Z,59.40
2023-04-18T09:30:42.294Z,59.30
2023-04-18T09:33:11.448Z,59.10
2023-04-18T09:35:39.972Z,59.00
2023-04-18T09:38:09.280Z,58.80
2023-04-18T09:40:38.881Z,58.60
2023-04-18T09:43:19.811Z,58.50
2023-04-18T09:45:49.359Z,58.10
2023-04-18T09:48:17.520Z,58.10
2023-04-18T09:50:47.240Z,58.20
2023-04-18T09:53:20.804Z,57.60
2023-04-18T09:55:55.567Z,57.30
2023-04-18T09:58:26.938Z,57.20
2023-04-18T10:00:56.124Z,57.10
2023-04-18T10:03:29.776Z,57.00
2023-04-18T10:05:58.092Z,57.20
2023-04-18T10:08:27.234Z,57.30
2023-04-18T10:10:58.653Z,57.20
2023-04-18T10:13:29.737Z,57.30
2023-04-18T10:15:58.525Z,57.10
2023-04-18T10:18:26.614Z,57.00
2023-04-18T10:21:03.206Z,57.00
2023-04-18T10:23:39.561Z,56.80
2023-04-18T10:26:09.839Z,56.70
2023-04-18T10:28:56.823Z,56.90
2023-04-18T10:31:26.935Z,57.70
2023-04-18T10:34:04.548Z,57.00
2023-04-18T10:36:33.890Z,56.80
2023-04-18T10:39:04.267Z,56.60
2023-04-18T10:41:34.407Z,56.80
2023-04-18T10:44:23.389Z,57.20
2023-04-18T10:47:21.783Z,57.10
2023-04-18T10:50:06.927Z,56.70
2023-04-18T10:52:35.752Z,56.80
2023-04-18T10:55:18.277Z,57.00
2023-04-18T10:57:49.093Z,56.50
2023-04-18T11:00:20.584Z,56.40
2023-04-18T11:02:57.794Z,56.70
2023-04-18T11:05:28.551Z,56.60
2023-04-18T11:07:56.773Z,57.00
2023-04-18T11:10:27.025Z,56.90
2023-04-18T11:12:57.370Z,56.90
2023-04-18T11:15:27.523Z,56.30
2023-04-18T11:17:59.653Z,56.20
2023-04-18T11:20:28.222Z,55.80
2023-04-18T11:22:57.956Z,55.90
2023-04-18T11:25:28.503Z,55.80
2023-04-18T11:28:00.929Z,56.00
2023-04-18T11:30:31.357Z,55.60
2023-04-18T11:32:59.483Z,55.60
2023-04-18T11:35:27.934Z,55.20
2023-04-18T11:37:56.152Z,54.90
2023-04-18T11:40:24.435Z,54.70
2023-04-18T11:42:55.318Z,54.60
2023-04-18T11:45:24.735Z,54.50
2023-04-18T11:47:58.001Z,54.70
2023-04-18T11:50:26.745Z,54.40
2023-04-18T11:52:56.123Z,54.70
2023-04-18T11:55:27.188Z,54.80
2023-04-18T11:57:56.440Z,54.90
2023-04-18T12:00:35.381Z,54.70
2023-04-18T12:03:05.419Z,54.70
2023-04-18T12:05:34.895Z,55.20
2023-04-18T12:08:10.167Z,55.20
2023-04-18T12:10:38.850Z,55.20
2023-04-18T12:13:08.767Z,55.80
2023-04-18T12:15:40.357Z,55.20
2023-04-18T12:18:09.436Z,55.10
2023-04-18T12:20:39.446Z,55.40
2023-04-18T12:23:07.993Z,55.00
2023-04-18T12:25:36.443Z,55.20
2023-04-18T12:28:14.304Z,54.80
2023-04-18T12:30:43.899Z,54.80
2023-04-18T12:33:12.508Z,54.90
2023-04-18T12:35:40.582Z,54.80
2023-04-18T12:38:08.593Z,55.30
2023-04-18T12:40:39.408Z,54.50
2023-04-18T12:43:07.856Z,54.30
2023-04-18T12:45:35.903Z,54.20
2023-04-18T12:48:05.696Z,54.60
2023-04-18T12:50:34.033Z,54.10
2023-04-18T12:53:02.774Z,54.30
2023-04-18T12:55:31.328Z,54.30
2023-04-18T12:57:59.506Z,54.00
2023-04-18T13:00:29.519Z,54.30
2023-04-18T13:02:58.028Z,54.40
2023-04-18T13:05:30.658Z,54.00
2023-04-18T13:10:31.901Z,54.80
2023-04-18T13:12:59.949Z,54.80
2023-04-18T13:15:28.030Z,54.50
2023-04-18T13:17:57.197Z,54.20
2023-04-18T13:20:27.003Z,54.20
2023-04-18T13:22:55.319Z,54.40
2023-04-18T13:25:23.601Z,54.10
2023-04-18T13:27:51.945Z,54.10
2023-04-18T13:30:20.198Z,54.10
2023-04-18T13:32:48.272Z,54.40
2023-04-18T13:35:16.380Z,54.50
2023-04-18T13:37:46.265Z,54.70
2023-04-18T13:40:14.940Z,54.60
2023-04-18T13:42:44.144Z,54.40
2023-04-18T13:45:12.680Z,54.10
2023-04-18T13:47:40.773Z,54.30
2023-04-18T13:50:10.102Z,53.70
2023-04-18T13:52:38.207Z,53.80
2023-04-18T13:55:10.585Z,54.00
2023-04-18T13:57:38.657Z,53.90
2023-04-18T14:00:09.181Z,54.10
2023-04-18T14:02:37.390Z,54.00
2023-04-18T14:05:06.284Z,53.80
2023-04-18T14:07:34.483Z,54.00
2023-04-18T14:10:02.536Z,53.90
2023-04-18T14:12:32.244Z,54.00
2023-04-18T14:15:00.427Z,54.30
2023-04-18T14:17:28.533Z,54.10
2023-04-18T14:19:56.661Z,54.20
2023-04-18T14:22:24.758Z,54.00
2023-04-18T14:24:54.438Z,54.10
2023-04-18T14:27:22.568Z,54.10
2023-04-18T14:29:52.306Z,54.30
2023-04-18T14:32:20.347Z,54.10
2023-04-18T14:34:48.371Z,53.90
2023-04-18T14:37:17.179Z,54.30
2023-04-18T14:39:46.123Z,54.40
2023-04-18T14:42:14.182Z,54.70
2023-04-18T14:44:42.460Z,54.80
2023-04-18T14:47:11.948Z,54.80
2023-04-18T14:49:40.038Z,55.00
2023-04-18T14:52:08.119Z,54.90
2023-04-18T14:54:36.177Z,55.00
2023-04-18T14:57:04.251Z,54.70
2023-04-18T14:59:32.358Z,54.30
2023-04-18T15:02:00.536Z,54.80
2023-04-18T15:04:30.074Z,55.10
2023-04-18T15:06:58.296Z,55.10
2023-04-18T15:09:26.336Z,54.80
2023-04-18T15:11:54.367Z,55.00
2023-04-18T15:14:22.411Z,55.10
2023-04-18T15:16:50.783Z,55.10
2023-04-18T15:19:18.892Z,55.10
2023-04-18T15:21:48.294Z,54.80
2023-04-18T15:24:16.862Z,55.00
2023-04-18T15:26:45.292Z,54.90
2023-04-18T15:29:13.458Z,54.80
2023-04-18T15:31:41.630Z,55.00
2023-04-18T15:34:09.929Z,54.70
2023-04-18T15:36:38.002Z,54.60
2023-04-18T15:39:09.071Z,54.60
2023-04-18T15:41:38.056Z,54.60
2023-04-18T15:44:07.908Z,54.40
2023-04-18T15:46:37.449Z,54.60
2023-04-18T15:49:05.580Z,54.80
2023-04-18T15:51:33.631Z,54.90
2023-04-18T15:54:01.896Z,55.00
2023-04-18T15:56:33.612Z,55.20
2023-04-18T15:59:03.187Z,55.00
2023-04-18T16:01:31.240Z,55.00
2023-04-18T16:03:59.409Z,54.90
2023-04-18T16:06:27.550Z,54.70
2023-04-18T16:08:55.650Z,54.50
2023-04-18T16:11:26.075Z,54.40
2023-04-18T16:13:56.716Z,54.40
2023-04-18T16:16:24.849Z,54.40
2023-04-18T16:18:52.915Z,54.50
2023-04-18T16:21:20.996Z,54.50
2023-04-18T16:23:49.868Z,54.60
2023-04-18T16:26:17.996Z,54.50
2023-04-18T16:28:47.109Z,54.50
2023-04-18T16:31:16.928Z,54.50
2023-04-18T16:33:45.410Z,54.70
2023-04-18T16:36:13.532Z,54.60
2023-04-18T16:38:41.585Z,54.60
2023-04-18T16:41:09.625Z,54.50
2023-04-18T16:43:38.023Z,54.60
2023-04-18T16:46:06.628Z,54.50
2023-04-18T16:48:38.666Z,54.60
2023-04-18T16:51:07.067Z,54.80
2023-04-18T16:53:35.134Z,55.00
2023-04-18T16:56:03.271Z,55.10
2023-04-18T16:58:31.437Z,55.20
2023-04-18T17:00:59.456Z,54.80
2023-04-18T17:03:27.654Z,54.80
2023-04-18T17:05:57.239Z,54.80
2023-04-18T17:08:25.887Z,54.90
2023-04-18T17:10:53.987Z,55.50
2023-04-18T17:13:26.683Z,54.90
2023-04-18T17:15:54.954Z,55.10
2023-04-18T17:18:23.152Z,55.20
2023-04-18T17:20:51.334Z,55.00
2023-04-18T17:23:21.817Z,55.10
2023-04-18T17:25:50.100Z,55.10
2023-04-18T17:28:18.146Z,55.20
2023-04-18T17:30:46.382Z,55.40
2023-04-18T17:33:14.392Z,55.50
2023-04-18T17:35:42.471Z,55.60
2023-04-18T17:38:11.475Z,55.60
2023-04-18T17:40:40.899Z,55.50
2023-04-18T17:43:08.943Z,55.40
2023-04-18T17:45:37.263Z,55.50
2023-04-18T17:48:06.010Z,55.60
2023-04-18T17:50:36.931Z,55.60
2023-04-18T17:53:05.099Z,55.80
2023-04-18T17:55:33.142Z,55.80
2023-04-18T17:58:02.586Z,55.80
2023-04-18T18:00:31.715Z,55.80
2023-04-18T18:03:01.384Z,55.90
2023-04-18T18:05:30.173Z,55.90
2023-04-18T18:07:58.461Z,55.90
2023-04-18T18:10:26.966Z,55.90
2023-04-18T18:12:55.021Z,56.00
2023-04-18T18:15:25.269Z,56.10
2023-04-18T18:17:54.816Z,56.20
2023-04-18T18:20:23.096Z,56.10
2023-04-18T18:22:51.449Z,56.20
2023-04-18T18:25:20.743Z,56.30
2023-04-18T18:27:49.429Z,56.40
2023-04-18T18:30:18.233Z,56.40
2023-04-18T18:32:47.698Z,56.50
2023-04-18T18:35:15.744Z,56.50
2023-04-18T18:37:43.763Z,56.60
2023-04-18T18:40:12.485Z,56.60
2023-04-18T18:42:40.621Z,56.60
2023-04-18T18:45:10.042Z,56.80
2023-04-18T18:47:39.801Z,56.80
2023-04-18T18:50:10.776Z,56.90
2023-04-18T18:52:40.716Z,56.80
2023-04-18T18:55:09.931Z,56.90
2023-04-18T18:57:38.176Z,57.60
2023-04-18T19:00:09.381Z,57.00
2023-04-18T19:02:38.106Z,57.20
2023-04-18T19:05:07.833Z,57.20
2023-04-18T19:07:37.274Z,57.30
2023-04-18T19:10:06.255Z,57.40
2023-04-18T19:12:34.314Z,57.40
2023-04-18T19:15:02.443Z,57.50
2023-04-18T19:17:31.021Z,57.60
2023-04-18T19:20:01.243Z,57.70
2023-04-18T19:22:29.468Z,57.70
2023-04-18T19:25:00.633Z,57.70
2023-04-18T19:27:28.678Z,57.60
2023-04-18T19:29:56.795Z,57.70
2023-04-18T19:32:24.927Z,57.70
2023-04-18T19:34:53.008Z,57.70
2023-04-18T19:37:21.094Z,57.70
2023-04-18T19:39:49.157Z,57.80
2023-04-18T19:42:18.573Z,57.90
2023-04-18T19:44:46.588Z,58.00
2023-04-18T19:47:14.673Z,58.00
2023-04-18T19:49:44.292Z,58.10
2023-04-18T19:52:12.361Z,58.20
2023-04-18T19:54:40.497Z,58.30
2023-04-18T19:57:08.523Z,58.30
2023-04-18T19:59:37.948Z,58.40
2023-04-18T20:02:06.679Z,58.60
2023-04-18T20:04:36.514Z,58.60
2023-04-18T20:07:04.788Z,58.70
2023-04-18T20:09:32.853Z,58.80
2023-04-18T20:12:01.931Z,58.80
2023-04-18T20:14:30.603Z,58.90
2023-04-18T20:17:00.052Z,59.00
2023-04-18T20:19:29.684Z,59.10
2023-04-18T20:21:57.876Z,59.10
2023-04-18T20:24:30.628Z,59.30
2023-04-18T20:27:00.676Z,59.30
2023-04-18T20:29:29.112Z,59.50
2023-04-18T20:31:57.157Z,59.50
2023-04-18T20:34:26.549Z,59.70
2023-04-18T20:36:54.633Z,59.70
2023-04-18T20:39:22.950Z,59.80
2023-04-18T20:41:51.499Z,59.90
2023-04-18T20:44:21.005Z,59.90
2023-04-18T20:46:49.335Z,59.90
2023-04-18T20:49:17.545Z,60.00
2023-04-18T20:51:47.066Z,60.10
2023-04-18T20:54:15.497Z,60.20
2023-04-18T20:56:43.668Z,60.30
2023-04-18T20:59:11.745Z,60.50
2023-04-18T21:01:39.846Z,60.70
2023-04-18T21:04:08.082Z,60.90
2023-04-18T21:06:36.577Z,61.00
2023-04-18T21:09:06.553Z,61.00
2023-04-18T21:11:35.167Z,61.20
2023-04-18T21:14:03.824Z,61.30
2023-04-18T21:16:31.956Z,61.60
2023-04-18T21:19:00.081Z,61.80
2023-04-18T21:21:28.329Z,61.80
2023-04-18T21:23:56.358Z,62.10
2023-04-18T21:26:25.782Z,62.00
2023-04-18T21:28:58.075Z,62.20
2023-04-18T21:31:26.721Z,62.20
2023-04-18T21:33:55.684Z,62.30
2023-04-18T21:36:26.458Z,62.20
2023-04-18T21:38:55.368Z,62.50
2023-04-18T21:41:25.457Z,62.50
2023-04-18T21:43:54.328Z,62.50
2023-04-18T21:46:22.512Z,62.50
2023-04-18T21:48:50.706Z,62.40
2023-04-18T21:51:18.831Z,62.50
2023-04-18T21:53:46.892Z,62.60
2023-04-18T21:56:15.196Z,62.60
2023-04-18T21:58:44.662Z,62.60
2023-04-18T22:01:12.884Z,62.70
2023-04-18T22:03:41.057Z,62.70
2023-04-18T22:06:09.257Z,62.70
2023-04-18T22:08:37.319Z,62.70
2023-04-18T22:11:05.743Z,62.60
2023-04-18T22:13:33.944Z,62.60
2023-04-18T22:16:04.119Z,62.60
2023-04-18T22:18:34.359Z,62.60
2023-04-18T22:21:03.301Z,62.50
2023-04-18T22:23:31.881Z,62.50
2023-04-18T22:26:00.183Z,62.60
2023-04-18T22:28:28.887Z,62.60
2023-04-18T22:30:57.048Z,62.70
2023-04-18T22:33:26.869Z,62.70
2023-04-18T22:35:55.653Z,62.90
2023-04-18T22:38:23.781Z,63.10
2023-04-18T22:40:51.904Z,63.10
2023-04-18T22:43:22.850Z,63.00
2023-04-18T22:45:51.219Z,63.10
2023-04-18T22:48:19.829Z,63.30
2023-04-18T22:50:49.956Z,63.50
2023-04-18T22:53:18.356Z,63.50
2023-04-18T22:55:46.897Z,63.50
2023-04-18T22:58:15.107Z,63.50
2023-04-18T23:00:43.723Z,63.60
2023-04-18T23:03:12.023Z,63.60
2023-04-18T23:05:41.076Z,63.70
2023-04-18T23:08:11.871Z,63.70
2023-04-18T23:10:40.033Z,63.70
2023-04-18T23:13:08.106Z,63.50
2023-04-18T23:15:36.213Z,63.60
2023-04-18T23:18:04.389Z,63.60
2023-04-18T23:20:32.465Z,63.50
2023-04-18T23:23:00.613Z,63.50
2023-04-18T23:25:30.034Z,63.40
2023-04-18T23:27:58.055Z,63.40
2023-04-18T23:30:26.763Z,63.20
2023-04-18T23:32:55.040Z,63.30
2023-04-18T23:35:23.216Z,63.30
2023-04-18T23:37:51.288Z,63.40
2023-04-18T23:40:19.524Z,63.50
2023-04-18T23:42:49.051Z,63.50
2023-04-18T23:45:17.136Z,63.60
2023-04-18T23:47:45.242Z,63.60
2023-04-18T23:50:13.730Z,63.70
2023-04-18T23:52:41.768Z,63.70
2023-04-18T23:55:10.558Z,63.70
2023-04-18T23:57:38.701Z,63.70
